createdAt,value
2022-08-17T00:02:25.334Z,73.20
2022-08-17T00:04:55.540Z,73.30
2022-08-17T00:07:23.040Z,73.50
2022-08-17T00:09:50.257Z,72.50
2022-08-17T00:12:41.695Z,73.20
2022-08-17T00:15:06.142Z,73.20
2022-08-17T00:17:38.075Z,73.30
2022-08-17T00:20:06.258Z,73.50
2022-08-17T00:22:36.427Z,73.40
2022-08-17T00:25:09.127Z,73.80
2022-08-17T00:27:36.871Z,73.60
2022-08-17T00:30:10.033Z,73.60
2022-08-17T00:33:22.840Z,73.30
2022-08-17T00:35:27.773Z,72.80
2022-08-17T00:37:55.325Z,72.20
2022-08-17T00:40:24.724Z,71.80
2022-08-17T00:42:53.301Z,71.20
2022-08-17T00:45:20.646Z,70.80
2022-08-17T00:47:49.356Z,70.80
2022-08-17T00:50:19.804Z,70.90
2022-08-17T00:52:54.211Z,70.90
2022-08-17T00:55:22.805Z,71.10
2022-08-17T00:57:55.572Z,70.60
2022-08-17T01:00:26.949Z,71.30
2022-08-17T01:03:01.965Z,71.60
2022-08-17T01:05:32.017Z,71.70
2022-08-17T01:08:00.929Z,71.60
2022-08-17T01:10:57.161Z,71.60
2022-08-17T01:13:40.805Z,71.30
2022-08-17T01:16:17.072Z,70.70
2022-08-17T01:18:46.847Z,69.30
2022-08-17T01:21:22.650Z,69.90
2022-08-17T01:23:51.625Z,69.50
2022-08-17T01:26:19.361Z,69.70
2022-08-17T01:28:54.797Z,69.60
2022-08-17T01:31:25.105Z,69.50
2022-08-17T01:33:52.702Z,69.40
2022-08-17T01:36:20.841Z,69.40
2022-08-17T01:38:48.194Z,69.20
2022-08-17T01:41:16.779Z,69.50
2022-08-17T01:44:13.562Z,69.80
2022-08-17T01:46:40.804Z,69.80
2022-08-17T01:49:11.128Z,69.00
2022-08-17T01:51:38.909Z,69.90
2022-08-17T01:54:11.274Z,69.80
2022-08-17T01:56:41.908Z,69.80
2022-08-17T01:59:10.585Z,69.80
2022-08-17T02:01:38.042Z,69.60
2022-08-17T02:04:06.968Z,69.90
2022-08-17T02:06:53.618Z,70.00
2022-08-17T02:09:25.990Z,69.30
2022-08-17T02:11:54.773Z,69.90
2022-08-17T02:14:24.573Z,69.20
2022-08-17T02:16:52.084Z,68.70
2022-08-17T02:19:19.644Z,68.60
2022-08-17T02:21:49.625Z,68.20
2022-08-17T02:24:59.843Z,68.00
2022-08-17T02:27:08.776Z,67.90
2022-08-17T02:29:36.093Z,67.90
2022-08-17T02:32:04.854Z,68.50
2022-08-17T02:34:32.774Z,68.30
2022-08-17T02:36:59.956Z,72.70
2022-08-17T02:39:27.237Z,79.30
2022-08-17T02:42:01.605Z,83.50
2022-08-17T02:44:38.806Z,85.90
2022-08-17T02:47:09.747Z,88.70
2022-08-17T02:49:37.530Z,90.00
2022-08-17T02:52:06.871Z,89.90
2022-08-17T02:54:39.280Z,90.20
2022-08-17T02:57:08.129Z,90.50
2022-08-17T02:59:35.645Z,90.70
2022-08-17T03:02:04.580Z,90.70
2022-08-17T03:04:35.128Z,90.80
2022-08-17T03:07:04.665Z,90.90
2022-08-17T03:09:32.312Z,90.70
2022-08-17T03:12:12.153Z,91.00
2022-08-17T03:14:43.596Z,90.90
2022-08-17T03:17:11.301Z,90.80
2022-08-17T03:19:44.876Z,90.70
2022-08-17T03:22:35.563Z,90.80
2022-08-17T03:24:59.610Z,91.30
2022-08-17T03:27:26.915Z,91.50
2022-08-17T03:29:55.025Z,91.30
2022-08-17T03:32:22.172Z,91.20
2022-08-17T03:34:49.391Z,90.90
2022-08-17T03:37:16.930Z,90.90
2022-08-17T03:39:44.137Z,91.10
2022-08-17T03:42:31.953Z,91.30
2022-08-17T03:45:01.207Z,91.40
2022-08-17T03:47:47.261Z,91.60
2022-08-17T03:50:33.728Z,92.00
2022-08-17T03:53:34.899Z,92.00
2022-08-17T03:56:23.395Z,91.80
2022-08-17T03:58:50.969Z,92.00
2022-08-17T04:01:18.243Z,92.10
2022-08-17T04:03:45.440Z,92.60
2022-08-17T04:06:12.622Z,92.50
2022-08-17T04:08:39.882Z,92.20
2022-08-17T04:11:07.084Z,92.60
2022-08-17T04:13:34.287Z,92.70
2022-08-17T04:16:01.862Z,92.70
2022-08-17T04:18:29.041Z,92.70
2022-08-17T04:20:56.276Z,92.70
2022-08-17T04:23:32.569Z,92.90
2022-08-17T04:25:59.753Z,92.70
2022-08-17T04:28:26.926Z,92.60
2022-08-17T04:30:54.117Z,92.50
2022-08-17T04:33:24.582Z,92.60
2022-08-17T04:35:57.993Z,92.80
2022-08-17T04:38:29.347Z,92.90
2022-08-17T04:41:16.939Z,92.90
2022-08-17T04:43:46.315Z,93.00
2022-08-17T04:46:19.789Z,93.00
2022-08-17T04:48:52.139Z,93.00
2022-08-17T04:51:27.934Z,93.10
2022-08-17T04:54:10.468Z,93.00
2022-08-17T04:56:38.371Z,93.10
2022-08-17T04:59:08.886Z,93.30
2022-08-17T05:01:38.527Z,93.30
2022-08-17T05:04:32.165Z,93.40
2022-08-17T05:06:56.900Z,93.40
2022-08-17T05:09:24.091Z,93.40
2022-08-17T05:11:51.614Z,93.50
2022-08-17T05:14:18.823Z,93.50
2022-08-17T05:16:49.173Z,93.40
2022-08-17T05:19:16.349Z,93.40
2022-08-17T05:21:43.538Z,93.30
2022-08-17T05:24:38.374Z,93.40
2022-08-17T05:27:02.595Z,93.40
2022-08-17T05:29:35.416Z,93.00
2022-08-17T05:32:37.897Z,92.60
2022-08-17T05:35:00.779Z,92.80
2022-08-17T05:37:30.308Z,93.30
2022-08-17T05:39:57.855Z,93.20
2022-08-17T05:42:25.070Z,93.10
2022-08-17T05:44:52.248Z,93.00
2022-08-17T05:47:21.197Z,93.10
2022-08-17T05:49:48.959Z,93.00
2022-08-17T05:52:49.948Z,93.00
2022-08-17T05:55:26.060Z,93.10
2022-08-17T05:58:17.386Z,93.00
2022-08-17T06:00:57.689Z,93.00
2022-08-17T06:03:41.898Z,93.00
2022-08-17T06:06:32.289Z,92.60
2022-08-17T06:09:45.917Z,92.00
2022-08-17T06:12:14.438Z,91.80
2022-08-17T06:15:01.346Z,91.90
2022-08-17T06:17:29.461Z,91.80
2022-08-17T06:20:03.009Z,91.70
2022-08-17T06:22:36.166Z,91.00
2022-08-17T06:25:18.708Z,90.30
2022-08-17T06:27:53.651Z,89.10
2022-08-17T06:30:28.234Z,88.60
2022-08-17T06:33:07.770Z,88.60
2022-08-17T06:35:44.314Z,88.60
2022-08-17T06:38:37.131Z,87.80
2022-08-17T06:41:20.502Z,86.70
2022-08-17T06:44:49.746Z,86.20
2022-08-17T06:47:28.503Z,85.70
2022-08-17T06:50:08.262Z,85.60
2022-08-17T06:53:15.502Z,85.40
2022-08-17T06:55:55.294Z,85.10
2022-08-17T06:58:29.815Z,85.30
2022-08-17T07:01:02.742Z,85.60
2022-08-17T07:03:38.616Z,85.80
2022-08-17T07:06:19.417Z,84.30
2022-08-17T07:09:00.041Z,84.50
2022-08-17T07:11:40.700Z,84.20
2022-08-17T07:14:29.147Z,84.00
2022-08-17T07:17:01.218Z,84.10
2022-08-17T07:19:31.887Z,83.80
2022-08-17T07:22:08.515Z,83.40
2022-08-17T07:25:04.292Z,84.00
2022-08-17T07:27:43.102Z,84.30
2022-08-17T07:30:24.011Z,84.20
2022-08-17T07:33:22.603Z,84.20
2022-08-17T07:35:50.110Z,84.90
2022-08-17T07:38:31.389Z,84.30
2022-08-17T07:41:02.535Z,83.80
2022-08-17T07:43:37.675Z,81.50
2022-08-17T07:47:08.703Z,78.30
2022-08-17T07:49:39.265Z,76.40
2022-08-17T07:52:50.771Z,75.60
2022-08-17T07:55:29.231Z,75.40
2022-08-17T07:58:00.002Z,75.10
2022-08-17T08:00:31.495Z,75.10
2022-08-17T08:03:31.857Z,75.00
2022-08-17T08:06:02.202Z,74.70
2022-08-17T08:08:42.262Z,74.60
2022-08-17T08:11:15.156Z,74.00
2022-08-17T08:13:45.316Z,73.80
2022-08-17T08:16:30.667Z,73.70
2022-08-17T08:19:01.576Z,73.70
2022-08-17T08:21:48.968Z,73.20
2022-08-17T08:24:40.311Z,72.30
2022-08-17T08:27:27.040Z,71.40
2022-08-17T08:30:00.051Z,69.70
2022-08-17T08:32:57.207Z,68.90
2022-08-17T08:35:30.856Z,69.10
2022-08-17T08:38:25.385Z,69.30
2022-08-17T08:41:07.963Z,70.00
2022-08-17T08:44:07.785Z,70.10
2022-08-17T08:47:09.829Z,70.80
2022-08-17T08:50:02.136Z,71.30
2022-08-17T08:52:27.404Z,72.40
2022-08-17T08:55:01.746Z,71.60
2022-08-17T08:57:36.800Z,71.80
2022-08-17T09:00:18.979Z,72.00
2022-08-17T09:02:58.474Z,71.90
2022-08-17T09:05:26.081Z,72.10
2022-08-17T09:08:06.108Z,71.20
2022-08-17T09:10:52.959Z,70.40
2022-08-17T09:13:41.802Z,70.80
2022-08-17T09:16:40.310Z,70.20
2022-08-17T09:19:18.795Z,69.10
2022-08-17T09:21:55.263Z,70.50
2022-08-17T09:24:35.498Z,70.40
2022-08-17T09:27:26.717Z,70.10
2022-08-17T09:30:02.619Z,69.10
2022-08-17T09:32:38.999Z,69.90
2022-08-17T09:35:36.795Z,70.00
2022-08-17T09:38:34.246Z,69.50
2022-08-17T09:41:26.545Z,69.10
2022-08-17T09:44:22.974Z,67.90
2022-08-17T09:46:55.915Z,68.10
2022-08-17T09:49:42.596Z,68.60
2022-08-17T09:52:25.439Z,68.90
2022-08-17T09:54:55.528Z,69.10
2022-08-17T09:57:35.255Z,69.20
2022-08-17T10:00:31.278Z,69.00
2022-08-17T10:03:34.235Z,69.40
2022-08-17T10:06:08.234Z,70.70
2022-08-17T10:08:52.566Z,70.10
2022-08-17T10:11:51.129Z,71.20
2022-08-17T10:14:37.297Z,71.80
2022-08-17T10:17:29.229Z,72.60
2022-08-17T10:20:19.125Z,72.80
2022-08-17T10:23:15.420Z,74.20
2022-08-17T10:26:07.302Z,75.50
2022-08-17T10:28:59.095Z,78.90
2022-08-17T10:31:34.609Z,80.70
2022-08-17T10:34:29.340Z,82.90
2022-08-17T10:37:12.437Z,84.80
2022-08-17T10:40:04.633Z,85.30
2022-08-17T10:42:42.576Z,86.10
2022-08-17T10:45:18.278Z,87.20
2022-08-17T10:48:12.941Z,87.70
2022-08-17T10:50:55.445Z,88.10
2022-08-17T10:53:31.742Z,88.80
2022-08-17T10:56:13.838Z,89.50
2022-08-17T10:58:54.678Z,88.70
2022-08-17T11:02:00.534Z,89.60
2022-08-17T11:04:49.869Z,89.30
2022-08-17T11:07:34.931Z,88.00
2022-08-17T11:10:32.922Z,85.60
2022-08-17T11:13:21.847Z,80.30
2022-08-17T11:16:09.625Z,76.60
2022-08-17T11:19:14.182Z,74.20
2022-08-17T11:21:56.716Z,72.50
2022-08-17T11:24:37.340Z,71.40
2022-08-17T11:27:26.419Z,68.40
2022-08-17T11:30:02.462Z,69.10
2022-08-17T11:32:54.483Z,68.40
2022-08-17T11:35:21.845Z,69.20
2022-08-17T11:38:16.307Z,71.70
2022-08-17T11:41:06.262Z,72.90
2022-08-17T11:43:48.395Z,74.20
2022-08-17T11:47:08.345Z,74.20
2022-08-17T11:50:27.749Z,73.80
2022-08-17T11:52:55.272Z,73.40
2022-08-17T11:55:38.426Z,74.60
2022-08-17T11:58:29.906Z,74.20
2022-08-17T12:01:02.372Z,74.80
2022-08-17T12:03:32.175Z,76.70
2022-08-17T12:06:19.393Z,77.50
2022-08-17T12:08:56.573Z,78.10
2022-08-17T12:12:01.687Z,78.00
2022-08-17T12:15:05.787Z,78.10
2022-08-17T12:17:41.389Z,78.30
2022-08-17T12:20:40.174Z,78.50
2022-08-17T12:23:16.072Z,78.90
2022-08-17T12:26:30.133Z,79.20
2022-08-17T12:29:18.249Z,78.80
2022-08-17T12:32:06.742Z,79.70
2022-08-17T12:34:40.554Z,80.50
2022-08-17T12:37:21.314Z,80.80
2022-08-17T12:40:26.919Z,81.10
2022-08-17T12:42:59.154Z,80.30
2022-08-17T12:45:33.536Z,79.80
2022-08-17T12:48:08.646Z,78.20
2022-08-17T12:50:38.444Z,79.00
2022-08-17T12:53:15.909Z,79.00
2022-08-17T12:55:44.322Z,79.40
2022-08-17T12:58:16.810Z,79.40
2022-08-17T13:00:56.779Z,79.70
2022-08-17T13:03:36.379Z,79.50
2022-08-17T13:06:10.157Z,79.70
2022-08-17T13:08:41.146Z,79.40
2022-08-17T13:11:14.471Z,79.20
2022-08-17T13:13:44.864Z,79.00
2022-08-17T13:16:20.273Z,78.50
2022-08-17T13:19:08.447Z,77.80
2022-08-17T13:21:37.885Z,77.60
2022-08-17T13:24:05.721Z,77.30
2022-08-17T13:26:40.166Z,77.20
2022-08-17T13:29:31.143Z,77.20
2022-08-17T13:32:05.079Z,77.50
2022-08-17T13:35:14.303Z,77.80
2022-08-17T13:37:41.043Z,77.90
2022-08-17T13:40:10.086Z,78.80
2022-08-17T13:42:52.572Z,79.20
2022-08-17T13:45:36.847Z,79.20
2022-08-17T13:48:11.971Z,79.20
2022-08-17T13:50:56.496Z,79.50
2022-08-17T13:53:32.936Z,79.50
2022-08-17T13:56:33.185Z,79.20
2022-08-17T13:59:06.007Z,79.70
2022-08-17T14:01:35.433Z,79.60
2022-08-17T14:04:15.738Z,79.80
2022-08-17T14:06:58.175Z,79.60
2022-08-17T14:09:37.217Z,79.30
2022-08-17T14:12:13.179Z,78.40
2022-08-17T14:14:43.428Z,77.30
2022-08-17T14:17:11.540Z,76.80
2022-08-17T14:19:40.477Z,76.50
2022-08-17T14:22:14.822Z,76.00
2022-08-17T14:24:44.859Z,75.90
2022-08-17T14:27:12.524Z,75.90
2022-08-17T14:29:41.150Z,75.10
2022-08-17T14:32:19.865Z,75.80
2022-08-17T14:34:49.436Z,75.00
2022-08-17T14:37:18.473Z,74.30
2022-08-17T14:39:46.126Z,73.80
2022-08-17T14:42:14.938Z,72.80
2022-08-17T14:44:42.155Z,72.20
2022-08-17T14:47:14.767Z,71.50
2022-08-17T14:49:42.219Z,69.80
2022-08-17T14:52:12.107Z,69.50
2022-08-17T14:54:42.522Z,68.80
2022-08-17T14:57:33.587Z,68.40
2022-08-17T15:00:00.899Z,68.10
2022-08-17T15:02:30.116Z,67.10
2022-08-17T15:05:03.594Z,66.50
2022-08-17T15:07:31.466Z,66.60
2022-08-17T15:10:01.508Z,66.20
2022-08-17T15:12:33.058Z,66.00
2022-08-17T15:15:02.810Z,66.20
2022-08-17T15:17:43.673Z,66.50
2022-08-17T15:20:22.741Z,66.70
2022-08-17T15:22:50.216Z,67.10
2022-08-17T15:25:19.361Z,67.20
2022-08-17T15:27:47.345Z,67.10
2022-08-17T15:30:15.201Z,67.80
2022-08-17T15:32:50.896Z,68.20
2022-08-17T15:35:28.097Z,67.60
2022-08-17T15:38:11.803Z,68.20
2022-08-17T15:40:46.105Z,68.80
2022-08-17T15:43:17.441Z,69.30
2022-08-17T15:45:58.577Z,70.60
2022-08-17T15:48:41.686Z,70.70
2022-08-17T15:51:17.691Z,71.00
2022-08-17T15:53:49.011Z,70.50
2022-08-17T15:56:17.110Z,70.20
2022-08-17T15:58:46.568Z,70.10
2022-08-17T16:01:18.315Z,70.20
2022-08-17T16:04:07.309Z,71.20
2022-08-17T16:06:43.592Z,72.00
2022-08-17T16:09:10.733Z,72.60
2022-08-17T16:11:38.774Z,72.90
2022-08-17T16:14:05.968Z,73.20
2022-08-17T16:16:33.150Z,73.70
2022-08-17T16:19:00.294Z,74.30
2022-08-17T16:21:29.481Z,75.20
2022-08-17T16:24:13.181Z,75.70
2022-08-17T16:26:40.757Z,75.80
2022-08-17T16:29:08.729Z,74.70
2022-08-17T16:31:37.556Z,75.10
2022-08-17T16:34:17.305Z,75.20
2022-08-17T16:36:55.221Z,75.10
2022-08-17T16:39:26.101Z,74.30
2022-08-17T16:41:53.618Z,75.40
2022-08-17T16:44:21.841Z,75.60
2022-08-17T16:46:50.108Z,76.10
2022-08-17T16:49:35.063Z,76.20
2022-08-17T16:52:05.018Z,76.40
2022-08-17T16:54:36.772Z,76.00
2022-08-17T16:57:05.117Z,75.80
2022-08-17T16:59:40.280Z,76.60
2022-08-17T17:02:14.250Z,76.60
2022-08-17T17:04:51.696Z,76.80
2022-08-17T17:07:45.981Z,77.10
2022-08-17T17:10:17.201Z,77.50
2022-08-17T17:13:02.330Z,77.70
2022-08-17T17:15:56.910Z,77.40
2022-08-17T17:18:39.131Z,77.50
2022-08-17T17:21:12.963Z,78.30
2022-08-17T17:23:48.418Z,79.30
2022-08-17T17:26:44.927Z,80.50
2022-08-17T17:29:27.747Z,82.30
2022-08-17T17:32:30.899Z,84.70
2022-08-17T17:35:09.598Z,86.80
2022-08-17T17:37:38.675Z,87.80
2022-08-17T17:40:14.217Z,88.80
2022-08-17T17:42:43.358Z,89.80
2022-08-17T17:45:37.283Z,90.30
2022-08-17T17:48:04.734Z,90.20
2022-08-17T17:50:39.945Z,90.50
2022-08-17T17:53:34.832Z,90.70
2022-08-17T17:56:44.225Z,90.50
2022-08-17T17:59:41.841Z,90.50
2022-08-17T18:02:52.041Z,90.20
2022-08-17T18:05:51.001Z,90.40
2022-08-17T18:08:42.038Z,89.70
2022-08-17T18:11:27.117Z,90.00
2022-08-17T18:14:14.710Z,90.40
2022-08-17T18:16:43.363Z,90.30
2022-08-17T18:19:22.370Z,90.30
2022-08-17T18:21:55.127Z,90.40
2022-08-17T18:24:35.134Z,90.50
2022-08-17T18:27:08.761Z,90.40
2022-08-17T18:29:45.650Z,89.70
2022-08-17T18:32:18.123Z,90.00
2022-08-17T18:34:48.877Z,89.80
2022-08-17T18:37:48.968Z,89.20
2022-08-17T18:40:19.444Z,89.80
2022-08-17T18:43:05.240Z,88.60
2022-08-17T18:45:48.333Z,88.50
2022-08-17T18:48:29.196Z,87.50
2022-08-17T18:51:40.676Z,88.20
2022-08-17T18:54:22.627Z,88.10
2022-08-17T18:56:57.064Z,88.30
2022-08-17T18:59:35.106Z,88.30
2022-08-17T19:02:24.887Z,87.80
2022-08-17T19:05:27.474Z,87.80
2022-08-17T19:08:13.574Z,86.90
2022-08-17T19:10:46.295Z,87.70
2022-08-17T19:13:38.502Z,87.70
2022-08-17T19:16:28.975Z,87.60
2022-08-17T19:19:07.607Z,87.60
2022-08-17T19:21:38.730Z,87.70
2022-08-17T19:24:19.270Z,88.10
2022-08-17T19:26:56.686Z,88.40
2022-08-17T19:29:45.465Z,88.80
2022-08-17T19:32:16.374Z,88.90
2022-08-17T19:34:44.619Z,88.90
2022-08-17T19:37:11.739Z,88.90
2022-08-17T19:40:03.026Z,88.50
2022-08-17T19:43:07.582Z,89.30
2022-08-17T19:45:49.310Z,89.20
2022-08-17T19:48:22.470Z,88.50
2022-08-17T19:51:03.587Z,89.30
2022-08-17T19:54:03.722Z,89.30
2022-08-17T19:56:43.700Z,89.40
2022-08-17T19:59:20.006Z,89.30
2022-08-17T20:02:06.176Z,89.40
2022-08-17T20:04:42.963Z,89.30
2022-08-17T20:07:17.606Z,89.40
2022-08-17T20:09:52.770Z,89.30
2022-08-17T20:12:26.598Z,89.30
2022-08-17T20:14:58.885Z,89.10
2022-08-17T20:17:31.135Z,89.10
2022-08-17T20:20:19.316Z,89.10
2022-08-17T20:22:57.735Z,89.20
2022-08-17T20:25:35.248Z,89.30
2022-08-17T20:28:24.184Z,89.40
2022-08-17T20:30:52.395Z,89.00
2022-08-17T20:33:27.564Z,89.20
2022-08-17T20:36:17.803Z,89.10
2022-08-17T20:38:47.960Z,89.20
2022-08-17T20:41:24.602Z,89.30
2022-08-17T20:43:58.726Z,89.20
2022-08-17T20:46:38.100Z,88.90
2022-08-17T20:49:11.218Z,88.50
2022-08-17T20:51:54.547Z,88.40
2022-08-17T20:54:40.740Z,88.30
2022-08-17T20:57:13.934Z,88.40
2022-08-17T20:59:45.162Z,87.80
2022-08-17T21:02:21.842Z,87.80
2022-08-17T21:04:52.802Z,88.10
2022-08-17T21:07:54.068Z,88.60
2022-08-17T21:10:21.320Z,88.70
2022-08-17T21:12:54.463Z,88.70
2022-08-17T21:15:30.902Z,89.10
2022-08-17T21:18:15.456Z,89.30
2022-08-17T21:21:06.583Z,89.30
2022-08-17T21:24:06.203Z,89.40
2022-08-17T21:26:50.450Z,89.20
2022-08-17T21:29:32.015Z,89.30
2022-08-17T21:32:02.971Z,89.50
2022-08-17T21:34:42.475Z,89.60
2022-08-17T21:37:31.937Z,89.50
2022-08-17T21:40:11.195Z,89.60
2022-08-17T21:42:47.138Z,89.70
2022-08-17T21:45:35.037Z,90.00
2022-08-17T21:48:20.469Z,90.00
2022-08-17T21:51:13.868Z,90.00
2022-08-17T21:53:59.930Z,90.20
2022-08-17T21:56:35.347Z,90.30
2022-08-17T21:59:04.187Z,89.90
2022-08-17T22:01:41.007Z,90.30
2022-08-17T22:04:13.794Z,90.20
2022-08-17T22:06:52.362Z,90.10
2022-08-17T22:09:27.212Z,90.00
2022-08-17T22:12:11.210Z,89.80
2022-08-17T22:14:52.284Z,89.50
2022-08-17T22:17:33.046Z,89.30
2022-08-17T22:20:01.790Z,88.80
2022-08-17T22:22:33.365Z,88.90
2022-08-17T22:25:06.802Z,88.80
2022-08-17T22:28:06.882Z,88.70
2022-08-17T22:30:57.913Z,88.60
2022-08-17T22:33:46.841Z,88.60
2022-08-17T22:36:32.453Z,88.40
2022-08-17T22:39:08.897Z,88.50
2022-08-17T22:41:41.655Z,88.20
2022-08-17T22:44:23.165Z,88.40
2022-08-17T22:46:52.605Z,88.40
2022-08-17T22:49:57.417Z,88.40
2022-08-17T22:52:57.525Z,88.30
2022-08-17T22:55:45.338Z,88.40
2022-08-17T22:58:33.934Z,88.20
2022-08-17T23:01:28.562Z,88.10
2022-08-17T23:03:58.991Z,87.80
2022-08-17T23:06:26.204Z,87.90
2022-08-17T23:08:57.987Z,87.10
2022-08-17T23:11:36.546Z,87.80
2022-08-17T23:14:15.853Z,87.70
2022-08-17T23:16:43.107Z,87.60
2022-08-17T23:19:16.394Z,87.70
2022-08-17T23:21:44.857Z,87.70
2022-08-17T23:24:19.182Z,87.80
2022-08-17T23:26:46.448Z,87.80
2022-08-17T23:29:13.620Z,87.90
2022-08-17T23:31:41.114Z,87.90
2022-08-17T23:34:13.372Z,87.70
2022-08-17T23:36:41.226Z,87.80
2022-08-17T23:39:08.402Z,88.10
2022-08-17T23:41:38.913Z,88.10
2022-08-17T23:44:06.887Z,87.90
2022-08-17T23:46:34.503Z,87.60
2022-08-17T23:49:01.773Z,87.40
2022-08-17T23:51:34.506Z,87.70
2022-08-17T23:54:13.382Z,87.80
2022-08-17T23:56:49.396Z,88.20
2022-08-17T23:59:23.221Z,88.40
